AFL569 UUEE-LGKR
Flight info
| Callsign | AFL569 |
|---|---|
| Flight time | 3h 5m |
| Altitude | 34000 |
| Route | LIDRI3J LIDRI T781 REPNU N858 VEPIS DCT TOSPO/N0449F360 Z367 KEFIR DCT KEKED DCT PARAK/N0449F350 DCT PIVEX DCT ALELU/N0448F360 DCT RINAV/N0448F370 DCT PITAS |
| Aircraft | B738/M-SDE2E3FGHIRWXY/LB1 |
Departure
| Time | 2026-05-04 16:29 |
|---|---|
| Airport | Sheremetyevo International Airport (UUEE) |
Arrival
| Time | 2026-05-04 19:35 |
|---|---|
| Airport | Corfu Ioannis Kapodistrias International Airport (LGKR) |
| Time | Latitude | Longitude | Altitude | Speed | Heading |
|---|---|---|---|---|---|
| 2026-05-04 15:50 | 55.97823 | 37.40983 | 622 ft | 0 kts | 75° |
| 2026-05-04 16:17 | 55.97815 | 37.40931 | 622 ft | 2 kts | 75° |
| 2026-05-04 16:18 | 55.97807 | 37.40866 | 622 ft | 1 kts | 98° |
| 2026-05-04 16:18 | 55.97810 | 37.40849 | 622 ft | 1 kts | 129° |
| 2026-05-04 16:19 | 55.97825 | 37.40836 | 622 ft | 0 kts | 166° |
| 2026-05-04 16:19 | 55.97826 | 37.40836 | 622 ft | 0 kts | 166° |
| 2026-05-04 16:20 | 55.97792 | 37.40850 | 622 ft | 7 kts | 167° |
| 2026-05-04 16:21 | 55.97604 | 37.40962 | 620 ft | 8 kts | 101° |
| 2026-05-04 16:22 | 55.97575 | 37.41149 | 622 ft | 12 kts | 166° |
| 2026-05-04 16:22 | 55.97622 | 37.41812 | 618 ft | 26 kts | 75° |
| 2026-05-04 16:23 | 55.97800 | 37.43001 | 608 ft | 37 kts | 74° |
| 2026-05-04 16:24 | 55.97930 | 37.44022 | 617 ft | 8 kts | 147° |
| 2026-05-04 16:25 | 55.97795 | 37.44080 | 614 ft | 6 kts | 209° |
| 2026-05-04 16:26 | 55.97776 | 37.44021 | 614 ft | 0 kts | 255° |
| 2026-05-04 16:28 | 55.97776 | 37.44020 | 614 ft | 0 kts | 255° |
| 2026-05-04 16:28 | 55.97340 | 37.41058 | 622 ft | 168 kts | 253° |
| 2026-05-04 16:29 | 55.96037 | 37.32424 | 3056 ft | 203 kts | 253° |
| 2026-05-04 16:30 | 55.94775 | 37.24463 | 4994 ft | 234 kts | 255° |
| 2026-05-04 16:31 | 55.93890 | 37.18857 | 6547 ft | 239 kts | 255° |
| 2026-05-04 16:31 | 55.92500 | 37.10046 | 8595 ft | 262 kts | 255° |
| 2026-05-04 16:32 | 55.91018 | 37.00290 | 10725 ft | 279 kts | 262° |
| 2026-05-04 16:33 | 55.90614 | 36.93290 | 11871 ft | 299 kts | 261° |
| 2026-05-04 16:33 | 55.89709 | 36.85746 | 12663 ft | 328 kts | 259° |
| 2026-05-04 16:34 | 55.88768 | 36.77443 | 13349 ft | 358 kts | 261° |
| 2026-05-04 16:34 | 55.88303 | 36.73028 | 13768 ft | 369 kts | 261° |
| 2026-05-04 16:35 | 55.86883 | 36.59347 | 15688 ft | 380 kts | 261° |
| 2026-05-04 16:35 | 55.85414 | 36.45375 | 17513 ft | 390 kts | 261° |
| 2026-05-04 16:36 | 55.84910 | 36.40628 | 18085 ft | 393 kts | 261° |
| 2026-05-04 16:36 | 55.83887 | 36.31036 | 19213 ft | 399 kts | 260° |
| 2026-05-04 16:37 | 55.82840 | 36.21303 | 20267 ft | 405 kts | 260° |
| 2026-05-04 16:37 | 55.82310 | 36.16398 | 20756 ft | 408 kts | 260° |
| 2026-05-04 16:37 | 55.81231 | 36.06485 | 21773 ft | 413 kts | 259° |
| 2026-05-04 16:38 | 55.80126 | 35.96416 | 22696 ft | 419 kts | 259° |
| 2026-05-04 16:39 | 55.78426 | 35.81071 | 23995 ft | 428 kts | 259° |
| 2026-05-04 16:39 | 55.77258 | 35.70640 | 24827 ft | 434 kts | 259° |
| 2026-05-04 16:40 | 55.76073 | 35.60141 | 25686 ft | 438 kts | 259° |
| 2026-05-04 16:40 | 55.75073 | 35.49434 | 26478 ft | 442 kts | 264° |
| 2026-05-04 16:41 | 55.74542 | 35.38543 | 27198 ft | 447 kts | 266° |
| 2026-05-04 16:41 | 55.73908 | 35.22097 | 28765 ft | 441 kts | 266° |
| 2026-05-04 16:42 | 55.73229 | 35.05987 | 30101 ft | 438 kts | 265° |
| 2026-05-04 16:43 | 55.72751 | 34.95293 | 30904 ft | 436 kts | 265° |
| 2026-05-04 16:43 | 55.72259 | 34.84581 | 31663 ft | 434 kts | 265° |
| 2026-05-04 16:43 | 55.72015 | 34.79336 | 32046 ft | 433 kts | 266° |
| 2026-05-04 16:44 | 55.70673 | 34.58261 | 33266 ft | 432 kts | 258° |
| 2026-05-04 16:45 | 55.68963 | 34.48121 | 33849 ft | 432 kts | 253° |
| 2026-05-04 16:46 | 55.63717 | 34.23170 | 33857 ft | 433 kts | 251° |
| 2026-05-04 16:47 | 55.59504 | 34.03232 | 33862 ft | 433 kts | 251° |
| 2026-05-04 16:48 | 55.55296 | 33.83353 | 33866 ft | 432 kts | 251° |
| 2026-05-04 16:49 | 55.51112 | 33.63534 | 33868 ft | 431 kts | 253° |
| 2026-05-04 16:50 | 55.48041 | 33.43163 | 33879 ft | 431 kts | 258° |
| 2026-05-04 16:51 | 55.45878 | 33.27783 | 33870 ft | 431 kts | 257° |
| 2026-05-04 16:52 | 55.42902 | 33.07420 | 33877 ft | 431 kts | 257° |
| 2026-05-04 16:53 | 55.40628 | 32.92197 | 33877 ft | 431 kts | 256° |
| 2026-05-04 16:54 | 55.37553 | 32.71884 | 33875 ft | 431 kts | 256° |
| 2026-05-04 16:55 | 55.32872 | 32.41440 | 33871 ft | 431 kts | 256° |
| 2026-05-04 16:56 | 55.28920 | 32.16172 | 33870 ft | 431 kts | 255° |
| 2026-05-04 16:57 | 55.26524 | 32.01035 | 33865 ft | 431 kts | 255° |
| 2026-05-04 16:58 | 55.23294 | 31.80841 | 33857 ft | 430 kts | 255° |
| 2026-05-04 17:00 | 55.18385 | 31.50606 | 33865 ft | 431 kts | 255° |
| 2026-05-04 17:01 | 55.14231 | 31.25430 | 33860 ft | 431 kts | 254° |
| 2026-05-04 17:02 | 55.10848 | 31.05386 | 33863 ft | 431 kts | 252° |
| 2026-05-04 17:03 | 55.07106 | 30.91238 | 33865 ft | 432 kts | 239° |
| 2026-05-04 17:03 | 55.02223 | 30.78053 | 33871 ft | 434 kts | 238° |
| 2026-05-04 17:04 | 54.95750 | 30.60405 | 33871 ft | 433 kts | 239° |
| 2026-05-04 17:05 | 54.89284 | 30.42863 | 33868 ft | 433 kts | 239° |
| 2026-05-04 17:06 | 54.84407 | 30.29722 | 33867 ft | 433 kts | 238° |
| 2026-05-04 17:07 | 54.80070 | 30.18095 | 33866 ft | 433 kts | 238° |
| 2026-05-04 17:07 | 54.76267 | 30.07946 | 33874 ft | 433 kts | 238° |
| 2026-05-04 17:08 | 54.71324 | 29.94818 | 33876 ft | 433 kts | 238° |
| 2026-05-04 17:09 | 54.68047 | 29.86153 | 33874 ft | 432 kts | 238° |
| 2026-05-04 17:09 | 54.64785 | 29.77556 | 33870 ft | 432 kts | 238° |
| 2026-05-04 17:10 | 54.56534 | 29.55948 | 33873 ft | 432 kts | 238° |
| 2026-05-04 17:11 | 54.53221 | 29.47324 | 33872 ft | 432 kts | 238° |
| 2026-05-04 17:12 | 54.48267 | 29.34485 | 33875 ft | 432 kts | 237° |
| 2026-05-04 17:13 | 54.39936 | 29.13043 | 33869 ft | 432 kts | 237° |
| 2026-05-04 17:14 | 54.33237 | 28.95932 | 33873 ft | 432 kts | 237° |
| 2026-05-04 17:15 | 54.28216 | 28.83186 | 33884 ft | 433 kts | 237° |
| 2026-05-04 17:16 | 54.21478 | 28.66184 | 33893 ft | 433 kts | 237° |
| 2026-05-04 17:17 | 54.14712 | 28.49225 | 33886 ft | 434 kts | 237° |
| 2026-05-04 17:18 | 54.07902 | 28.32272 | 33897 ft | 435 kts | 236° |
| 2026-05-04 17:19 | 54.01057 | 28.15349 | 33902 ft | 436 kts | 236° |
| 2026-05-04 17:20 | 53.94171 | 27.98438 | 33905 ft | 437 kts | 236° |
| 2026-05-04 17:20 | 53.89014 | 27.85848 | 33908 ft | 436 kts | 236° |
| 2026-05-04 17:21 | 53.82085 | 27.69032 | 33905 ft | 436 kts | 236° |
| 2026-05-04 17:22 | 53.78614 | 27.60650 | 33903 ft | 436 kts | 236° |
| 2026-05-04 17:23 | 53.71640 | 27.43893 | 33913 ft | 438 kts | 236° |
| 2026-05-04 17:24 | 53.66392 | 27.31357 | 33912 ft | 437 kts | 235° |
| 2026-05-04 17:25 | 53.59383 | 27.14710 | 33916 ft | 437 kts | 235° |
| 2026-05-04 17:26 | 53.52334 | 26.98080 | 33919 ft | 437 kts | 235° |
| 2026-05-04 17:27 | 53.43488 | 26.77367 | 33920 ft | 437 kts | 235° |
| 2026-05-04 17:28 | 53.36383 | 26.60852 | 33917 ft | 437 kts | 235° |
| 2026-05-04 17:29 | 53.25659 | 26.36130 | 33922 ft | 439 kts | 235° |
| 2026-05-04 17:31 | 53.16675 | 26.15602 | 33918 ft | 439 kts | 234° |
| 2026-05-04 17:32 | 53.07632 | 25.95106 | 33917 ft | 440 kts | 234° |
| 2026-05-04 17:33 | 53.00371 | 25.78769 | 33921 ft | 440 kts | 234° |
| 2026-05-04 17:34 | 52.93095 | 25.62508 | 33928 ft | 441 kts | 235° |
| 2026-05-04 17:35 | 52.83947 | 25.42204 | 33934 ft | 442 kts | 235° |
| 2026-05-04 17:36 | 52.80258 | 25.34063 | 33933 ft | 442 kts | 234° |
| 2026-05-04 17:36 | 52.76589 | 25.25992 | 33936 ft | 442 kts | 234° |
| 2026-05-04 17:37 | 52.72895 | 25.17893 | 33927 ft | 442 kts | 234° |
| 2026-05-04 17:37 | 52.69200 | 25.09816 | 33931 ft | 442 kts | 234° |
| 2026-05-04 17:38 | 52.65493 | 25.01740 | 33938 ft | 444 kts | 234° |
| 2026-05-04 17:38 | 52.61798 | 24.93716 | 33930 ft | 441 kts | 234° |
| 2026-05-04 17:39 | 52.56235 | 24.81680 | 33934 ft | 442 kts | 234° |
| 2026-05-04 17:39 | 52.52501 | 24.73632 | 33940 ft | 443 kts | 234° |
| 2026-05-04 17:40 | 52.48757 | 24.65592 | 33942 ft | 444 kts | 234° |
| 2026-05-04 17:40 | 52.45024 | 24.57600 | 33940 ft | 443 kts | 234° |
| 2026-05-04 17:41 | 52.41270 | 24.49587 | 33943 ft | 444 kts | 234° |
| 2026-05-04 17:41 | 52.37523 | 24.41615 | 33941 ft | 443 kts | 234° |
| 2026-05-04 17:42 | 52.33743 | 24.33596 | 33949 ft | 446 kts | 234° |
| 2026-05-04 17:42 | 52.29989 | 24.25659 | 33948 ft | 444 kts | 234° |
| 2026-05-04 17:43 | 52.26198 | 24.17669 | 33947 ft | 445 kts | 234° |
| 2026-05-04 17:43 | 52.22391 | 24.09672 | 33950 ft | 445 kts | 234° |
| 2026-05-04 17:44 | 52.18578 | 24.01686 | 33948 ft | 444 kts | 234° |
| 2026-05-04 17:44 | 52.14784 | 23.93763 | 33955 ft | 446 kts | 234° |
| 2026-05-04 17:45 | 52.10955 | 23.85793 | 33957 ft | 446 kts | 234° |
| 2026-05-04 17:45 | 52.07128 | 23.77850 | 33957 ft | 445 kts | 234° |
| 2026-05-04 17:46 | 52.03207 | 23.70111 | 33958 ft | 447 kts | 228° |
| 2026-05-04 17:46 | 51.98240 | 23.64054 | 33964 ft | 452 kts | 210° |
| 2026-05-04 17:47 | 51.92495 | 23.59770 | 33959 ft | 453 kts | 205° |
| 2026-05-04 17:47 | 51.86692 | 23.55882 | 33961 ft | 453 kts | 205° |
| 2026-05-04 17:48 | 51.80851 | 23.51987 | 33963 ft | 454 kts | 205° |
| 2026-05-04 17:48 | 51.75040 | 23.48067 | 33963 ft | 454 kts | 205° |
| 2026-05-04 17:49 | 51.69217 | 23.44107 | 33966 ft | 455 kts | 205° |
| 2026-05-04 17:50 | 51.57916 | 23.36406 | 33967 ft | 455 kts | 205° |
| 2026-05-04 17:50 | 51.52074 | 23.32435 | 33970 ft | 457 kts | 204° |
| 2026-05-04 17:51 | 51.46207 | 23.28455 | 33975 ft | 458 kts | 204° |
| 2026-05-04 17:51 | 51.40375 | 23.24512 | 33971 ft | 456 kts | 204° |
| 2026-05-04 17:52 | 51.34499 | 23.20549 | 33976 ft | 460 kts | 204° |
| 2026-05-04 17:52 | 51.28634 | 23.16606 | 33979 ft | 460 kts | 204° |
| 2026-05-04 17:53 | 51.22734 | 23.12651 | 33978 ft | 460 kts | 204° |
| 2026-05-04 17:53 | 51.16824 | 23.08699 | 33977 ft | 459 kts | 204° |
| 2026-05-04 17:54 | 51.10957 | 23.04787 | 33981 ft | 461 kts | 204° |
| 2026-05-04 17:54 | 51.05063 | 23.00868 | 33984 ft | 459 kts | 204° |
| 2026-05-04 17:55 | 50.99125 | 22.96931 | 33988 ft | 461 kts | 204° |
| 2026-05-04 17:55 | 50.93222 | 22.93028 | 33985 ft | 461 kts | 204° |
| 2026-05-04 17:56 | 50.87334 | 22.89145 | 33992 ft | 462 kts | 204° |
| 2026-05-04 17:56 | 50.81429 | 22.85262 | 33989 ft | 460 kts | 204° |
| 2026-05-04 17:57 | 50.75499 | 22.81373 | 34014 ft | 464 kts | 204° |
| 2026-05-04 17:57 | 50.72530 | 22.79430 | 34295 ft | 464 kts | 204° |
| 2026-05-04 17:57 | 50.69587 | 22.77507 | 34690 ft | 461 kts | 204° |
| 2026-05-04 17:58 | 50.66624 | 22.75574 | 34932 ft | 461 kts | 204° |
| 2026-05-04 17:58 | 50.63664 | 22.73645 | 35145 ft | 462 kts | 204° |
| 2026-05-04 17:58 | 50.60737 | 22.71739 | 35369 ft | 461 kts | 204° |
| 2026-05-04 17:58 | 50.57821 | 22.69844 | 35661 ft | 459 kts | 204° |
| 2026-05-04 17:59 | 50.54845 | 22.67913 | 35906 ft | 458 kts | 204° |
| 2026-05-04 17:59 | 50.51883 | 22.65993 | 35990 ft | 461 kts | 204° |
| 2026-05-04 18:00 | 50.43097 | 22.60313 | 35991 ft | 457 kts | 204° |
| 2026-05-04 18:00 | 50.37228 | 22.56531 | 35994 ft | 459 kts | 204° |
| 2026-05-04 18:01 | 50.31339 | 22.52745 | 35995 ft | 459 kts | 204° |
| 2026-05-04 18:01 | 50.25499 | 22.49003 | 35993 ft | 459 kts | 204° |
| 2026-05-04 18:02 | 50.16655 | 22.43354 | 35997 ft | 459 kts | 204° |
| 2026-05-04 18:02 | 50.10768 | 22.39606 | 36000 ft | 460 kts | 204° |
| 2026-05-04 18:03 | 50.04925 | 22.35899 | 35995 ft | 459 kts | 204° |
| 2026-05-04 18:03 | 49.99070 | 22.32192 | 35996 ft | 460 kts | 203° |
| 2026-05-04 18:04 | 49.93186 | 22.28476 | 36006 ft | 461 kts | 203° |
| 2026-05-04 18:05 | 49.84290 | 22.22875 | 36007 ft | 460 kts | 203° |
| 2026-05-04 18:05 | 49.78369 | 22.19161 | 36018 ft | 461 kts | 203° |
| 2026-05-04 18:06 | 49.69543 | 22.13645 | 36019 ft | 461 kts | 203° |
| 2026-05-04 18:06 | 49.63589 | 22.09936 | 36010 ft | 461 kts | 203° |
| 2026-05-04 18:07 | 49.57656 | 22.06248 | 36021 ft | 461 kts | 203° |
| 2026-05-04 18:07 | 49.51728 | 22.02576 | 36028 ft | 461 kts | 203° |
| 2026-05-04 18:08 | 49.45804 | 21.98924 | 36042 ft | 462 kts | 203° |
| 2026-05-04 18:08 | 49.39879 | 21.95284 | 36035 ft | 461 kts | 203° |
| 2026-05-04 18:09 | 49.27943 | 21.87973 | 36047 ft | 462 kts | 203° |
| 2026-05-04 18:10 | 49.22005 | 21.84347 | 36054 ft | 463 kts | 203° |
| 2026-05-04 18:10 | 49.16051 | 21.80721 | 36046 ft | 463 kts | 203° |
| 2026-05-04 18:11 | 49.10054 | 21.77076 | 36036 ft | 463 kts | 203° |
| 2026-05-04 18:11 | 49.04114 | 21.73476 | 36036 ft | 460 kts | 203° |
| 2026-05-04 18:12 | 48.98141 | 21.69865 | 36038 ft | 464 kts | 203° |
| 2026-05-04 18:12 | 48.92167 | 21.66264 | 36037 ft | 463 kts | 203° |
| 2026-05-04 18:13 | 48.86203 | 21.62677 | 36032 ft | 463 kts | 203° |
| 2026-05-04 18:14 | 48.77225 | 21.57295 | 36043 ft | 464 kts | 203° |
| 2026-05-04 18:14 | 48.71205 | 21.53697 | 36048 ft | 465 kts | 203° |
| 2026-05-04 18:15 | 48.59226 | 21.46569 | 36044 ft | 464 kts | 203° |
| 2026-05-04 18:16 | 48.53221 | 21.43008 | 36044 ft | 465 kts | 203° |
| 2026-05-04 18:16 | 48.47189 | 21.39441 | 36050 ft | 466 kts | 203° |
| 2026-05-04 18:17 | 48.38173 | 21.34127 | 36048 ft | 466 kts | 202° |
| 2026-05-04 18:18 | 48.29105 | 21.28802 | 36058 ft | 466 kts | 202° |
| 2026-05-04 18:18 | 48.23092 | 21.25283 | 36060 ft | 467 kts | 202° |
| 2026-05-04 18:19 | 48.14025 | 21.19991 | 36055 ft | 467 kts | 202° |
| 2026-05-04 18:19 | 48.07944 | 21.16454 | 36057 ft | 468 kts | 202° |
| 2026-05-04 18:20 | 48.01861 | 21.12926 | 36054 ft | 468 kts | 202° |
| 2026-05-04 18:20 | 47.95827 | 21.09434 | 36055 ft | 467 kts | 202° |
| 2026-05-04 18:21 | 47.89884 | 21.06004 | 36055 ft | 468 kts | 202° |
| 2026-05-04 18:21 | 47.83807 | 21.02505 | 36057 ft | 469 kts | 202° |
| 2026-05-04 18:22 | 47.77716 | 20.99007 | 36056 ft | 468 kts | 202° |
| 2026-05-04 18:22 | 47.71639 | 20.95526 | 36055 ft | 469 kts | 202° |
| 2026-05-04 18:23 | 47.65583 | 20.92066 | 36057 ft | 469 kts | 202° |
| 2026-05-04 18:23 | 47.59482 | 20.88587 | 36049 ft | 468 kts | 202° |
| 2026-05-04 18:24 | 47.53380 | 20.85117 | 36055 ft | 470 kts | 202° |
| 2026-05-04 18:24 | 47.47324 | 20.81683 | 36054 ft | 469 kts | 202° |
| 2026-05-04 18:25 | 47.41222 | 20.78231 | 36054 ft | 469 kts | 202° |
| 2026-05-04 18:25 | 47.35128 | 20.74792 | 36054 ft | 470 kts | 202° |
| 2026-05-04 18:26 | 47.29039 | 20.71364 | 36050 ft | 469 kts | 202° |
| 2026-05-04 18:26 | 47.22987 | 20.67965 | 36055 ft | 470 kts | 202° |
| 2026-05-04 18:27 | 47.16874 | 20.64540 | 36055 ft | 470 kts | 202° |
| 2026-05-04 18:27 | 47.10752 | 20.61120 | 36056 ft | 471 kts | 202° |
| 2026-05-04 18:28 | 47.04676 | 20.57733 | 36054 ft | 470 kts | 202° |
| 2026-05-04 18:28 | 46.98577 | 20.54342 | 36055 ft | 471 kts | 202° |
| 2026-05-04 18:29 | 46.92463 | 20.50951 | 36059 ft | 470 kts | 202° |
| 2026-05-04 18:29 | 46.86348 | 20.47566 | 36057 ft | 470 kts | 202° |
| 2026-05-04 18:30 | 46.77161 | 20.42498 | 36053 ft | 471 kts | 202° |
| 2026-05-04 18:31 | 46.71062 | 20.39144 | 36057 ft | 471 kts | 202° |
| 2026-05-04 18:31 | 46.64908 | 20.35768 | 36057 ft | 471 kts | 202° |
| 2026-05-04 18:32 | 46.58776 | 20.32412 | 36055 ft | 471 kts | 201° |
| 2026-05-04 18:32 | 46.52637 | 20.29060 | 36057 ft | 472 kts | 201° |
| 2026-05-04 18:33 | 46.46510 | 20.25723 | 36056 ft | 471 kts | 201° |
| 2026-05-04 18:33 | 46.40385 | 20.22396 | 36057 ft | 472 kts | 201° |
| 2026-05-04 18:34 | 46.34260 | 20.19076 | 36054 ft | 472 kts | 202° |
| 2026-05-04 18:34 | 46.31172 | 20.17405 | 35926 ft | 475 kts | 202° |
| 2026-05-04 18:34 | 46.28098 | 20.15743 | 35689 ft | 475 kts | 201° |
| 2026-05-04 18:34 | 46.24967 | 20.14055 | 35447 ft | 473 kts | 202° |
| 2026-05-04 18:35 | 46.21903 | 20.12409 | 35212 ft | 474 kts | 201° |
| 2026-05-04 18:35 | 46.18790 | 20.10854 | 35059 ft | 473 kts | 198° |
| 2026-05-04 18:35 | 46.15629 | 20.09646 | 35057 ft | 477 kts | 192° |
| 2026-05-04 18:36 | 46.08768 | 20.08441 | 35056 ft | 480 kts | 184° |
| 2026-05-04 18:36 | 46.02103 | 20.07978 | 35054 ft | 479 kts | 182° |
| 2026-05-04 18:37 | 45.95424 | 20.07609 | 35058 ft | 481 kts | 182° |
| 2026-05-04 18:37 | 45.88752 | 20.07186 | 35061 ft | 480 kts | 183° |
| 2026-05-04 18:38 | 45.82073 | 20.06710 | 35061 ft | 481 kts | 183° |
| 2026-05-04 18:38 | 45.75386 | 20.06204 | 35057 ft | 481 kts | 184° |
| 2026-05-04 18:39 | 45.68734 | 20.05689 | 35056 ft | 481 kts | 183° |
| 2026-05-04 18:39 | 45.62046 | 20.05168 | 35060 ft | 481 kts | 184° |
| 2026-05-04 18:40 | 45.55335 | 20.04647 | 35061 ft | 482 kts | 184° |
| 2026-05-04 18:40 | 45.48665 | 20.04130 | 35056 ft | 482 kts | 184° |
| 2026-05-04 18:41 | 45.41982 | 20.03615 | 35058 ft | 482 kts | 184° |
| 2026-05-04 18:41 | 45.35284 | 20.03099 | 35054 ft | 483 kts | 184° |
| 2026-05-04 18:42 | 45.28583 | 20.02585 | 35062 ft | 483 kts | 184° |
| 2026-05-04 18:42 | 45.21838 | 20.02069 | 35058 ft | 483 kts | 184° |
| 2026-05-04 18:43 | 45.15159 | 20.01560 | 35062 ft | 483 kts | 184° |
| 2026-05-04 18:43 | 45.08449 | 20.01049 | 35064 ft | 483 kts | 184° |
| 2026-05-04 18:44 | 45.01717 | 20.00537 | 35068 ft | 484 kts | 184° |
| 2026-05-04 18:44 | 44.95033 | 20.00030 | 35073 ft | 484 kts | 184° |
| 2026-05-04 18:45 | 44.88313 | 19.99524 | 35070 ft | 483 kts | 184° |
| 2026-05-04 18:45 | 44.81566 | 19.99015 | 35071 ft | 484 kts | 184° |
| 2026-05-04 18:46 | 44.74842 | 19.98509 | 35067 ft | 484 kts | 184° |
| 2026-05-04 18:46 | 44.68147 | 19.98005 | 35072 ft | 485 kts | 184° |
| 2026-05-04 18:47 | 44.61374 | 19.97497 | 35063 ft | 485 kts | 184° |
| 2026-05-04 18:47 | 44.54656 | 19.96995 | 35068 ft | 485 kts | 184° |
| 2026-05-04 18:48 | 44.47919 | 19.96492 | 35063 ft | 485 kts | 184° |
| 2026-05-04 18:48 | 44.41180 | 19.96043 | 35079 ft | 486 kts | 183° |
| 2026-05-04 18:49 | 44.34390 | 19.95654 | 35074 ft | 486 kts | 183° |
| 2026-05-04 18:49 | 44.27647 | 19.95276 | 35081 ft | 486 kts | 183° |
| 2026-05-04 18:50 | 44.20880 | 19.94891 | 35091 ft | 486 kts | 183° |
| 2026-05-04 18:50 | 44.14117 | 19.94500 | 35096 ft | 486 kts | 183° |
| 2026-05-04 18:51 | 44.07363 | 19.94108 | 35102 ft | 487 kts | 183° |
| 2026-05-04 18:51 | 44.00635 | 19.93717 | 35111 ft | 487 kts | 183° |
| 2026-05-04 18:52 | 43.93827 | 19.93321 | 35119 ft | 487 kts | 183° |
| 2026-05-04 18:52 | 43.87054 | 19.92929 | 35113 ft | 486 kts | 183° |
| 2026-05-04 18:53 | 43.80304 | 19.92537 | 35118 ft | 488 kts | 183° |
| 2026-05-04 18:53 | 43.73546 | 19.92148 | 35116 ft | 487 kts | 183° |
| 2026-05-04 18:54 | 43.66788 | 19.91759 | 35121 ft | 487 kts | 183° |
| 2026-05-04 18:54 | 43.60025 | 19.91371 | 35134 ft | 487 kts | 183° |
| 2026-05-04 18:55 | 43.53225 | 19.90981 | 35133 ft | 488 kts | 183° |
| 2026-05-04 18:55 | 43.43086 | 19.90402 | 35147 ft | 489 kts | 183° |
| 2026-05-04 18:56 | 43.36277 | 19.90014 | 35138 ft | 488 kts | 183° |
| 2026-05-04 18:56 | 43.29543 | 19.89632 | 35140 ft | 489 kts | 184° |
| 2026-05-04 18:57 | 43.22745 | 19.89246 | 35134 ft | 488 kts | 184° |
| 2026-05-04 18:57 | 43.15937 | 19.88861 | 35137 ft | 488 kts | 184° |
| 2026-05-04 18:58 | 43.09140 | 19.88477 | 35146 ft | 488 kts | 184° |
| 2026-05-04 18:58 | 43.02341 | 19.88094 | 35144 ft | 488 kts | 184° |
| 2026-05-04 18:59 | 42.95593 | 19.87714 | 35142 ft | 489 kts | 184° |
| 2026-05-04 18:59 | 42.88813 | 19.87334 | 35152 ft | 489 kts | 184° |
| 2026-05-04 19:00 | 42.81989 | 19.86951 | 35161 ft | 490 kts | 184° |
| 2026-05-04 19:00 | 42.75218 | 19.86573 | 35152 ft | 488 kts | 184° |
| 2026-05-04 19:01 | 42.68393 | 19.86193 | 35153 ft | 491 kts | 184° |
| 2026-05-04 19:01 | 42.61549 | 19.85811 | 35152 ft | 491 kts | 184° |
| 2026-05-04 19:02 | 42.54756 | 19.85434 | 35146 ft | 489 kts | 184° |
| 2026-05-04 19:02 | 42.47938 | 19.85057 | 35149 ft | 490 kts | 184° |
| 2026-05-04 19:03 | 42.41124 | 19.84429 | 35147 ft | 491 kts | 187° |
| 2026-05-04 19:03 | 42.34338 | 19.83526 | 35149 ft | 491 kts | 188° |
| 2026-05-04 19:04 | 42.27508 | 19.82581 | 35133 ft | 490 kts | 188° |
| 2026-05-04 19:04 | 42.20725 | 19.81672 | 35129 ft | 491 kts | 187° |
| 2026-05-04 19:05 | 42.13921 | 19.80792 | 35133 ft | 491 kts | 188° |
| 2026-05-04 19:05 | 42.07097 | 19.79929 | 35122 ft | 491 kts | 188° |
| 2026-05-04 19:06 | 42.00322 | 19.79081 | 35116 ft | 493 kts | 187° |
| 2026-05-04 19:06 | 41.93438 | 19.78693 | 35110 ft | 494 kts | 182° |
| 2026-05-04 19:07 | 41.86537 | 19.78892 | 35108 ft | 496 kts | 180° |
| 2026-05-04 19:07 | 41.79669 | 19.79209 | 35116 ft | 497 kts | 180° |
| 2026-05-04 19:08 | 41.72757 | 19.79490 | 35112 ft | 496 kts | 180° |
| 2026-05-04 19:08 | 41.65855 | 19.79721 | 35116 ft | 497 kts | 181° |
| 2026-05-04 19:09 | 41.58919 | 19.79922 | 35052 ft | 498 kts | 181° |
| 2026-05-04 19:09 | 41.55499 | 19.80018 | 34815 ft | 499 kts | 181° |
| 2026-05-04 19:09 | 41.51992 | 19.80114 | 34642 ft | 497 kts | 181° |
| 2026-05-04 19:10 | 41.48537 | 19.80208 | 34506 ft | 499 kts | 181° |
| 2026-05-04 19:10 | 41.45087 | 19.80302 | 34325 ft | 502 kts | 181° |
| 2026-05-04 19:10 | 41.41559 | 19.80395 | 34049 ft | 502 kts | 181° |
| 2026-05-04 19:10 | 41.38080 | 19.80490 | 33774 ft | 500 kts | 181° |
| 2026-05-04 19:11 | 41.34611 | 19.80585 | 33509 ft | 503 kts | 181° |
| 2026-05-04 19:11 | 41.27391 | 19.80778 | 32953 ft | 504 kts | 181° |
| 2026-05-04 19:11 | 41.23891 | 19.80872 | 32681 ft | 505 kts | 181° |
| 2026-05-04 19:12 | 41.20365 | 19.80969 | 32408 ft | 506 kts | 181° |
| 2026-05-04 19:12 | 41.13319 | 19.81164 | 31871 ft | 508 kts | 181° |
| 2026-05-04 19:12 | 41.09750 | 19.81262 | 31599 ft | 509 kts | 181° |
| 2026-05-04 19:13 | 41.06192 | 19.81358 | 31326 ft | 510 kts | 181° |
| 2026-05-04 19:13 | 41.02678 | 19.81453 | 31059 ft | 510 kts | 181° |
| 2026-05-04 19:13 | 40.99113 | 19.81549 | 30787 ft | 510 kts | 181° |
| 2026-05-04 19:13 | 40.95564 | 19.81644 | 30511 ft | 511 kts | 181° |
| 2026-05-04 19:14 | 40.85415 | 19.81919 | 29750 ft | 507 kts | 181° |
| 2026-05-04 19:14 | 40.81911 | 19.82014 | 29488 ft | 504 kts | 181° |
| 2026-05-04 19:15 | 40.78427 | 19.82108 | 29226 ft | 502 kts | 181° |
| 2026-05-04 19:15 | 40.74920 | 19.82201 | 28965 ft | 501 kts | 181° |
| 2026-05-04 19:15 | 40.71447 | 19.82294 | 28705 ft | 498 kts | 181° |
| 2026-05-04 19:15 | 40.67956 | 19.82387 | 28434 ft | 496 kts | 181° |
| 2026-05-04 19:16 | 40.64513 | 19.82478 | 28175 ft | 494 kts | 181° |
| 2026-05-04 19:16 | 40.61095 | 19.82570 | 27916 ft | 491 kts | 181° |
| 2026-05-04 19:16 | 40.57667 | 19.82662 | 27588 ft | 490 kts | 181° |
| 2026-05-04 19:16 | 40.54297 | 19.82753 | 27094 ft | 486 kts | 181° |
| 2026-05-04 19:17 | 40.50930 | 19.82843 | 26520 ft | 483 kts | 181° |
| 2026-05-04 19:17 | 40.47552 | 19.82933 | 25911 ft | 480 kts | 181° |
| 2026-05-04 19:17 | 40.44231 | 19.83020 | 25296 ft | 477 kts | 180° |
| 2026-05-04 19:17 | 40.40953 | 19.83107 | 24692 ft | 474 kts | 180° |
| 2026-05-04 19:18 | 40.37637 | 19.83193 | 24077 ft | 471 kts | 180° |
| 2026-05-04 19:18 | 40.34379 | 19.83279 | 23468 ft | 468 kts | 180° |
| 2026-05-04 19:18 | 40.31128 | 19.83364 | 22862 ft | 465 kts | 180° |
| 2026-05-04 19:18 | 40.27933 | 19.83448 | 22258 ft | 462 kts | 180° |
| 2026-05-04 19:19 | 40.24726 | 19.83533 | 21648 ft | 460 kts | 180° |
| 2026-05-04 19:19 | 40.21532 | 19.83617 | 21037 ft | 457 kts | 180° |
| 2026-05-04 19:19 | 40.18350 | 19.83702 | 20427 ft | 454 kts | 180° |
| 2026-05-04 19:19 | 40.15224 | 19.83785 | 19820 ft | 451 kts | 180° |
| 2026-05-04 19:20 | 40.12065 | 19.83868 | 19196 ft | 448 kts | 180° |
| 2026-05-04 19:20 | 40.08980 | 19.83949 | 18635 ft | 444 kts | 180° |
| 2026-05-04 19:20 | 40.05891 | 19.84030 | 18060 ft | 441 kts | 180° |
| 2026-05-04 19:20 | 40.02845 | 19.84109 | 17468 ft | 438 kts | 180° |
| 2026-05-04 19:21 | 39.99790 | 19.84189 | 16843 ft | 435 kts | 180° |
| 2026-05-04 19:21 | 39.96611 | 19.84272 | 16200 ft | 433 kts | 180° |
| 2026-05-04 19:21 | 39.93620 | 19.84349 | 15580 ft | 430 kts | 180° |
| 2026-05-04 19:21 | 39.90646 | 19.84426 | 14962 ft | 427 kts | 179° |
| 2026-05-04 19:22 | 39.87852 | 19.84537 | 14361 ft | 424 kts | 177° |
| 2026-05-04 19:22 | 39.84948 | 19.84523 | 14007 ft | 412 kts | 189° |
| 2026-05-04 19:22 | 39.82219 | 19.83570 | 13837 ft | 393 kts | 204° |
| 2026-05-04 19:22 | 39.79903 | 19.81873 | 13386 ft | 381 kts | 222° |
| 2026-05-04 19:23 | 39.78040 | 19.79495 | 12679 ft | 371 kts | 234° |
| 2026-05-04 19:23 | 39.76545 | 19.76831 | 11927 ft | 362 kts | 242° |
| 2026-05-04 19:23 | 39.75352 | 19.74000 | 11260 ft | 351 kts | 246° |
| 2026-05-04 19:23 | 39.74144 | 19.71345 | 10776 ft | 340 kts | 235° |
| 2026-05-04 19:24 | 39.72403 | 19.69349 | 10446 ft | 327 kts | 211° |
| 2026-05-04 19:24 | 39.70334 | 19.68268 | 10320 ft | 313 kts | 196° |
| 2026-05-04 19:24 | 39.68201 | 19.67742 | 10134 ft | 313 kts | 186° |
| 2026-05-04 19:24 | 39.66020 | 19.67654 | 9705 ft | 317 kts | 177° |
| 2026-05-04 19:25 | 39.63832 | 19.67919 | 9262 ft | 316 kts | 172° |
| 2026-05-04 19:25 | 39.61671 | 19.68360 | 8865 ft | 313 kts | 169° |
| 2026-05-04 19:25 | 39.59566 | 19.68853 | 8505 ft | 302 kts | 169° |
| 2026-05-04 19:25 | 39.57546 | 19.69335 | 8163 ft | 292 kts | 169° |
| 2026-05-04 19:26 | 39.55566 | 19.69797 | 7780 ft | 284 kts | 169° |
| 2026-05-04 19:26 | 39.53643 | 19.70235 | 7443 ft | 275 kts | 169° |
| 2026-05-04 19:26 | 39.51781 | 19.70651 | 7105 ft | 267 kts | 169° |
| 2026-05-04 19:26 | 39.49986 | 19.71050 | 6779 ft | 260 kts | 169° |
| 2026-05-04 19:27 | 39.48201 | 19.71446 | 6476 ft | 258 kts | 169° |
| 2026-05-04 19:27 | 39.46431 | 19.71840 | 6137 ft | 258 kts | 169° |
| 2026-05-04 19:27 | 39.44687 | 19.72228 | 5838 ft | 257 kts | 169° |
| 2026-05-04 19:27 | 39.42910 | 19.72680 | 5516 ft | 257 kts | 163° |
| 2026-05-04 19:28 | 39.41302 | 19.73635 | 5085 ft | 259 kts | 138° |
| 2026-05-04 19:28 | 39.40231 | 19.75436 | 4751 ft | 252 kts | 110° |
| 2026-05-04 19:28 | 39.39814 | 19.77593 | 4466 ft | 247 kts | 93° |
| 2026-05-04 19:28 | 39.39759 | 19.79819 | 4147 ft | 245 kts | 87° |
| 2026-05-04 19:29 | 39.39807 | 19.82011 | 3939 ft | 239 kts | 86° |
| 2026-05-04 19:29 | 39.39859 | 19.84089 | 3870 ft | 229 kts | 86° |
| 2026-05-04 19:29 | 39.39896 | 19.86109 | 3804 ft | 218 kts | 86° |
| 2026-05-04 19:29 | 39.40010 | 19.88049 | 3689 ft | 214 kts | 77° |
| 2026-05-04 19:30 | 39.40382 | 19.89882 | 3446 ft | 212 kts | 70° |
| 2026-05-04 19:30 | 39.40836 | 19.91662 | 3312 ft | 202 kts | 70° |
| 2026-05-04 19:30 | 39.41249 | 19.93354 | 3256 ft | 191 kts | 71° |
| 2026-05-04 19:30 | 39.41633 | 19.94979 | 3215 ft | 187 kts | 69° |
| 2026-05-04 19:31 | 39.42265 | 19.96432 | 3136 ft | 182 kts | 40° |
| 2026-05-04 19:31 | 39.43346 | 19.97081 | 3012 ft | 168 kts | 5° |
| 2026-05-04 19:31 | 39.44495 | 19.97008 | 2794 ft | 163 kts | 347° |
| 2026-05-04 19:31 | 39.45560 | 19.96614 | 2513 ft | 163 kts | 342° |
| 2026-05-04 19:32 | 39.46648 | 19.96180 | 2023 ft | 163 kts | 343° |
| 2026-05-04 19:32 | 39.47699 | 19.95760 | 1776 ft | 156 kts | 342° |
| 2026-05-04 19:32 | 39.48726 | 19.95330 | 1683 ft | 155 kts | 341° |
| 2026-05-04 19:32 | 39.49763 | 19.94873 | 1712 ft | 157 kts | 340° |
| 2026-05-04 19:33 | 39.50795 | 19.94425 | 1755 ft | 158 kts | 341° |
| 2026-05-04 19:33 | 39.51849 | 19.93963 | 1622 ft | 158 kts | 339° |
| 2026-05-04 19:33 | 39.52876 | 19.93443 | 1422 ft | 159 kts | 337° |
| 2026-05-04 19:33 | 39.53920 | 19.92926 | 1159 ft | 159 kts | 339° |
| 2026-05-04 19:34 | 39.54982 | 19.92506 | 891 ft | 159 kts | 345° |
| 2026-05-04 19:34 | 39.56052 | 19.92225 | 746 ft | 159 kts | 349° |
| 2026-05-04 19:34 | 39.57163 | 19.91978 | 519 ft | 163 kts | 348° |
| 2026-05-04 19:34 | 39.58279 | 19.91705 | 208 ft | 162 kts | 347° |
| 2026-05-04 19:35 | 39.59359 | 19.91428 | 25 ft | 153 kts | 347° |
| 2026-05-04 19:35 | 39.60174 | 19.91218 | 6 ft | 74 kts | 348° |
| 2026-05-04 19:35 | 39.60448 | 19.91150 | 6 ft | 22 kts | 355° |
| 2026-05-04 19:35 | 39.60566 | 19.91185 | 6 ft | 8 kts | 28° |
| 2026-05-04 19:36 | 39.60586 | 19.91204 | 6 ft | 0 kts | 46° |
| 2026-05-04 19:36 | 39.60587 | 19.91205 | 6 ft | 1 kts | 46° |
| 2026-05-04 19:37 | 39.60609 | 19.91228 | 6 ft | 7 kts | 21° |
| 2026-05-04 19:37 | 39.60667 | 19.91222 | 6 ft | 9 kts | 348° |
| 2026-05-04 19:37 | 39.60710 | 19.91211 | 7 ft | 4 kts | 348° |
| 2026-05-04 19:37 | 39.60729 | 19.91206 | 7 ft | 2 kts | 351° |
| 2026-05-04 19:38 | 39.60743 | 19.91214 | 8 ft | 1 kts | 60° |
| 2026-05-04 19:38 | 39.60751 | 19.91250 | 8 ft | 5 kts | 79° |
| 2026-05-04 19:38 | 39.60758 | 19.91299 | 8 ft | 3 kts | 78° |
| 2026-05-04 19:38 | 39.60762 | 19.91324 | 8 ft | 0 kts | 78° |
| 2026-05-04 19:39 | 39.60764 | 19.91332 | 8 ft | 0 kts | 78° |